Latest Weather Observations for Maria Island

IDT60901

Issued at 5:01 pm EST Friday 19 April 2019 (issued every 10 minutes, with the page automatically refreshed every 10 minutes)

About weather observations | Map of Hobart area stations | Latest observations for Hobart area | Other Formats
Station Details ID: 092124 Name: MARIA ISLAND (POINT LESUEUR) Lat: -42.66 Lon: 148.02 Height: 28.0 m
Data from the previous 72 hours. | See also: Recent months at Maria Island
Date/Time
EST
Temp
°C
App
Temp
°C
Dew
Point
°C
Rel
Hum
%
Delta-T
°C
Wind Press
QNH
hPa
Press
MSL
hPa
Rain since
9am
mm
Dir  Spd
km/h
Gust
km/h
Spd
kts
Gust
kts
19/05:00pm 13.6 10.4 5.3 57 3.9 NNE 11 17 6 9 1029.3 1029.3 0.0
19/04:30pm 14.1 11.2 4.9 54 4.3 NNW 9 15 5 8 1029.4 1029.4 0.0
19/04:00pm 13.8 10.9 6.4 61 3.5 ESE 11 17 6 9 1029.3 1029.3 0.0
19/03:30pm 13.8 10.2 6.7 62 3.4 ESE 15 20 8 11 1029.5 1029.5 0.0
19/03:00pm 13.6 9.9 6.2 61 3.5 ESE 15 20 8 11 1029.6 1029.6 0.0
19/02:30pm 13.6 9.1 6.0 60 3.6 ESE 19 22 10 12 1029.5 1029.5 0.0
19/02:00pm 14.0 9.5 6.1 59 3.7 ESE 19 24 10 13 1029.7 1029.7 0.0
19/01:30pm 14.1 9.9 5.7 57 4.0 ESE 17 20 9 11 1029.9 1029.9 0.0
19/01:00pm 14.0 11.8 5.1 55 4.1 N 6 9 3 5 1030.1 1030.1 0.0
19/12:30pm 14.5 11.8 5.8 56 4.1 ENE 9 17 5 9 1030.2 1030.2 0.0
19/12:00pm 13.4 11.0 5.3 58 3.8 S 7 9 4 5 1030.8 1030.8 0.0
19/11:30am 13.1 10.7 5.3 59 3.6 S 7 9 4 5 1031.2 1031.2 0.0
19/11:00am 12.8 10.5 5.0 59 3.6 SW 6 9 3 5 1031.5 1031.5 0.0
19/10:30am 12.9 11.3 6.3 64 3.1 SSW 4 7 2 4 1031.6 1031.6 0.0
19/10:00am 12.0 10.2 5.6 65 2.9 SSW 4 6 2 3 1031.8 1031.8 0.0
19/09:30am 11.9 9.8 5.8 66 2.8 NNW 6 7 3 4 1032.1 1032.1 0.0
19/09:00am 11.2 8.8 5.3 67 2.7 WNW 7 9 4 5 1032.1 1032.1 0.0
19/08:30am 10.6 8.4 6.0 73 2.1 NW 7 9 4 5 1031.8 1031.8 0.0
19/08:00am 9.7 6.3 5.9 77 1.7 WNW 13 15 7 8 1031.3 1031.3 0.0
19/07:30am 9.1 5.7 6.0 81 1.4 WNW 13 15 7 8 1031.1 1031.1 0.0
19/07:00am 8.7 5.7 6.0 83 1.2 WNW 11 13 6 7 1030.7 1030.7 0.0
19/06:30am 8.9 5.9 5.8 81 1.4 W 11 13 6 7 1030.6 1030.6 0.0
19/06:00am 9.3 6.9 5.1 75 1.9 WNW 7 9 4 5 1030.6 1030.6 0.0
19/05:30am 9.4 6.7 5.4 76 1.8 WNW 9 11 5 6 1030.5 1030.5 0.0
19/05:00am 9.3 6.1 5.1 75 1.9 WNW 11 13 6 7 1030.3 1030.3 0.0
19/04:30am 9.4 6.2 5.0 74 2.0 W 11 13 6 7 1030.0 1030.0 0.0
19/04:00am 9.7 6.9 5.1 73 2.1 WNW 9 13 5 7 1029.7 1029.7 0.0
19/03:30am 10.3 7.1 4.9 69 2.4 WSW 11 13 6 7 1029.7 1029.7 0.0
19/03:00am 10.1 7.7 5.3 72 2.2 W 7 11 4 6 1029.7 1029.7 0.0
19/02:30am 10.1 6.2 5.5 73 2.1 W 15 17 8 9 1029.7 1029.7 0.0
19/02:00am 10.3 6.8 5.5 72 2.2 W 13 15 7 8 1029.9 1029.9 0.0
19/01:30am 10.7 8.0 5.5 70 2.4 WSW 9 13 5 7 1029.9 1029.9 0.0
19/01:00am 11.0 7.4 4.9 66 2.7 SW 13 15 7 8 1030.0 1030.0 0.0
19/12:30am 11.2 6.6 5.5 68 2.6 SW 19 24 10 13 1029.8 1029.8 0.0
19/12:00am 11.4 6.2 5.7 68 2.6 SSW 22 26 12 14 1029.7 1029.7 0.0
 
Date/Time
EST
Temp
°C
App
Temp
°C
Dew
Point
°C
Rel
Hum
%
Delta-T
°C
Wind Press
QNH
hPa
Press
MSL
hPa
Rain since
9am
mm
Dir  Spd
km/h
Gust
km/h
Spd
kts
Gust
kts
18/11:30pm 11.4 7.1 5.1 65 2.9 SW 17 20 9 11 1029.7 1029.7 0.0
18/11:00pm 11.2 7.7 5.5 68 2.6 SW 13 17 7 9 1029.7 1029.7 0.0
18/10:30pm 11.5 7.7 5.8 68 2.7 WSW 15 19 8 10 1029.7 1029.7 0.0
18/10:00pm 11.1 7.8 6.6 74 2.1 W 13 15 7 8 1029.5 1029.5 0.0
18/09:30pm 11.4 8.5 6.3 71 2.4 WSW 11 13 6 7 1029.2 1029.2 0.0
18/09:00pm 11.8 8.4 5.9 67 2.7 SW 13 19 7 10 1028.8 1028.8 0.0
18/08:30pm 11.8 7.7 6.3 69 2.6 SSW 17 24 9 13 1028.4 1028.4 0.0
18/08:00pm 12.0 7.4 5.6 65 3.0 SW 19 24 10 13 1028.1 1028.1 0.0
18/07:30pm 12.2 7.4 5.8 65 3.0 SW 20 26 11 14 1027.6 1027.6 0.0
18/07:00pm 12.4 7.6 5.8 64 3.1 SW 20 24 11 13 1027.2 1027.2 0.0
18/06:30pm 12.7 6.4 5.8 63 3.2 SW 28 33 15 18 1026.7 1026.7 0.0
18/06:00pm 13.2 6.9 5.6 60 3.5 SW 28 35 15 19 1026.0 1026.0 0.0
18/05:30pm 13.4 6.3 5.3 58 3.8 SSW 32 37 17 20 1025.3 1025.3 0.0
18/05:00pm 13.5 6.2 7.3 66 3.0 SSW 35 41 19 22 1024.8 1024.8 0.0
18/04:30pm 14.2 6.3 4.5 52 4.5 SW 35 41 19 22 1024.5 1024.5 0.0
18/04:00pm 14.6 7.7 4.6 51 4.6 SW 30 35 16 19 1023.8 1023.8 0.0
18/03:30pm 14.5 7.9 4.2 50 4.7 WSW 28 35 15 19 1023.5 1023.5 0.0
18/03:00pm 14.9 7.9 4.3 49 4.9 SW 30 39 16 21 1022.9 1022.9 0.0
18/02:30pm 14.9 8.3 4.3 49 4.9 SW 28 33 15 18 1022.7 1022.7 0.0
18/02:01pm 14.9 7.4 4.6 50 4.8 SW 33 52 18 28 1022.2 1022.2 0.0
18/02:00pm 14.9 7.0 4.6 50 4.8 SW 35 52 19 28 1022.1 1022.1 0.0
18/01:56pm 15.0 8.1 4.4 49 4.9 SW 30 52 16 28 1022.0 1022.0 0.0
18/01:30pm 15.4 8.6 5.0 50 4.9 WSW 30 39 16 21 1021.7 1021.7 0.0
18/01:00pm 15.0 8.6 5.0 51 4.7 WSW 28 41 15 22 1021.5 1021.5 0.0
18/12:30pm 15.1 8.7 5.0 51 4.8 WSW 28 39 15 21 1021.5 1021.5 0.0
18/12:00pm 14.2 7.2 5.8 57 4.0 WSW 32 41 17 22 1021.4 1021.4 0.0
18/11:46am 13.9 7.9 5.5 57 4.0 SW 26 48 14 26 1021.1 1021.1 0.0
18/11:30am 14.2 10.7 5.3 55 4.2 SW 13 20 7 11 1021.5 1021.5 0.0
18/11:00am 13.8 6.6 5.7 58 3.8 W 33 43 18 23 1020.9 1020.9 0.0
18/10:30am 13.3 6.2 6.2 62 3.4 W 33 43 18 23 1020.8 1020.8 0.0
18/10:00am 12.9 8.1 5.6 61 3.4 W 20 30 11 16 1020.6 1020.6 0.0
18/09:30am 11.9 6.7 5.5 65 3.0 W 22 32 12 17 1020.4 1020.4 0.0
18/09:00am 11.3 6.5 5.4 67 2.7 W 20 35 11 19 1019.9 1019.9 9.6
18/08:30am 11.6 4.6 5.9 68 2.7 WSW 32 37 17 20 1019.4 1019.4 9.6
18/08:00am 11.2 4.1 5.7 69 2.5 W 32 43 17 23 1018.7 1018.7 9.6
18/07:30am 11.8 8.0 5.9 67 2.8 W 15 32 8 17 1018.3 1018.3 9.6
18/07:00am 11.7 9.5 6.2 69 2.6 NE 7 20 4 11 1017.4 1017.4 9.6
18/06:30am 11.3 8.4 6.6 73 2.2 W 11 20 6 11 1016.7 1016.7 9.6
18/06:00am 11.3 6.9 7.2 76 2.0 W 20 30 11 16 1015.8 1015.8 9.6
18/05:30am 11.3 6.6 7.6 78 1.8 WNW 22 32 12 17 1015.2 1015.2 9.6
18/05:00am 11.3 5.9 8.2 81 1.5 WNW 26 30 14 16 1014.6 1014.6 9.6
18/04:30am 11.6 7.6 8.3 80 1.6 WNW 19 28 10 15 1014.2 1014.2 9.6
18/04:00am 11.4 6.5 8.6 83 1.4 WNW 24 33 13 18 1013.3 1013.3 9.6
18/03:30am 11.9 8.0 8.7 81 1.6 NW 19 26 10 14 1013.8 1013.8 9.4
18/03:00am 12.1 9.0 8.9 81 1.6 NW 15 24 8 13 1013.8 1013.8 9.0
18/02:30am 12.2 8.3 8.5 78 1.8 WNW 19 28 10 15 1014.0 1014.0 8.4
18/02:00am 13.4 9.5 9.6 78 1.9 W 20 33 11 18 1014.4 1014.4 6.8
18/01:30am 13.0 9.6 11.2 89 0.9 WSW 20 32 11 17 1014.1 1014.1 5.8
18/01:00am 14.3 10.6 12.7 90 0.9 SSW 24 32 13 17 1013.5 1013.5 3.6
18/12:51am 14.0 8.4 12.2 89 1.0 SW 33 52 18 28 1013.8 1013.8 3.4
18/12:44am 14.0 6.7 11.7 86 1.2 SW 41 54 22 29 1013.8 1013.8 2.6
18/12:30am 15.4 8.9 11.8 79 1.9 WSW 37 54 20 29 1011.7 1011.7 0.0
18/12:27am 16.2 11.7 12.7 80 1.9 WSW 28 46 15 25 1011.7 1011.7 0.0
18/12:00am 17.7 13.3 14.2 80 2.0 N 30 35 16 19 1010.9 1010.9 0.0
 
Date/Time
EST
Temp
°C
App
Temp
°C
Dew
Point
°C
Rel
Hum
%
Delta-T
°C
Wind Press
QNH
hPa
Press
MSL
hPa
Rain since
9am
mm
Dir  Spd
km/h
Gust
km/h
Spd
kts
Gust
kts
17/11:30pm 18.5 13.4 13.8 74 2.7 N 33 39 18 21 1010.4 1010.4 0.0
17/11:00pm 20.0 12.8 13.0 64 4.0 N 43 50 23 27 1010.8 1010.8 0.0
17/10:30pm 19.9 14.3 13.4 66 3.7 N 35 46 19 25 1010.9 1010.9 0.0
17/10:00pm 19.9 15.2 13.1 65 3.9 N 30 37 16 20 1012.1 1012.1 0.0
17/09:30pm 20.2 13.3 12.9 63 4.1 N 41 50 22 27 1012.5 1012.5 0.0
17/09:00pm 18.9 12.2 13.5 71 3.1 N 41 48 22 26 1012.3 1012.3 0.0
17/08:30pm 18.5 13.9 13.6 73 2.8 N 30 32 16 17 1013.0 1013.0 0.0
17/08:00pm 19.9 12.5 12.9 64 4.0 N 44 52 24 28 1013.3 1013.3 0.0
17/07:30pm 19.7 13.7 13.2 66 3.7 N 37 43 20 23 1013.5 1013.5 0.0
17/07:00pm 19.6 14.5 13.8 69 3.3 N 33 39 18 21 1013.7 1013.7 0.0
17/06:30pm 18.8 14.3 14.9 78 2.3 N 32 35 17 19 1013.8 1013.8 0.0
17/06:00pm 18.8 15.1 14.9 78 2.3 N 28 35 15 19 1013.8 1013.8 0.0
17/05:30pm 18.3 14.2 15.0 81 1.9 N 30 37 16 20 1013.6 1013.6 0.0
17/05:00pm 18.8 13.9 15.3 80 2.1 N 35 44 19 24 1013.5 1013.5 0.0
17/04:30pm 18.8 12.6 14.9 78 2.3 N 41 48 22 26 1013.1 1013.1 0.0
17/04:00pm 19.5 13.4 15.2 76 2.5 N 41 48 22 26 1013.0 1013.0 0.0
17/03:30pm 18.8 11.8 15.3 80 2.1 N 46 54 25 29 1012.9 1012.9 0.0
17/03:00pm 19.9 12.3 14.7 72 3.0 N 48 54 26 29 1012.8 1012.8 0.0
17/02:30pm 20.1 12.6 14.9 72 3.1 N 48 54 26 29 1013.3 1013.3 0.0
17/02:00pm 20.9 14.2 14.5 67 3.7 N 43 52 23 28 1013.6 1013.6 0.0
17/01:30pm 20.5 13.7 14.8 70 3.3 N 44 54 24 29 1013.7 1013.7 0.0
17/01:00pm 19.9 13.3 14.9 73 2.9 N 43 46 23 25 1014.5 1014.5 0.0
17/12:30pm 21.9 14.9 13.8 60 4.7 N 43 50 23 27 1014.7 1014.7 0.0
17/12:00pm 20.5 12.6 13.9 66 3.8 N 48 56 26 30 1015.0 1015.0 0.0
17/11:30am 20.2 12.2 14.6 70 3.3 N 50 61 27 33 1015.5 1015.5 0.0
17/11:00am 20.3 12.7 14.7 70 3.3 N 48 59 26 32 1016.0 1016.0 0.0
17/10:30am 19.6 12.1 15.0 75 2.7 N 48 57 26 31 1016.3 1016.3 0.0
17/10:00am 18.0 11.3 14.7 81 1.9 N 43 46 23 25 1017.0 1017.0 0.0
17/09:30am 18.5 11.4 15.0 80 2.0 N 46 52 25 28 1016.8 1016.8 0.0
17/09:00am 17.7 10.1 14.6 82 1.8 N 48 54 26 29 1017.0 1017.0 0.0
17/08:30am 17.1 11.2 14.7 86 1.4 N 39 44 21 24 1017.7 1017.7 0.0
17/08:00am 17.1 10.4 14.6 85 1.4 N 43 48 23 26 1017.4 1017.4 0.0
17/07:30am 17.1 10.3 14.4 84 1.5 N 43 50 23 27 1017.6 1017.6 0.0
17/07:00am 17.6 11.1 14.1 80 2.0 N 41 48 22 26 1017.4 1017.4 0.0
17/06:30am 17.3 11.7 14.4 83 1.7 N 37 43 20 23 1017.7 1017.7 0.0
17/06:00am 17.2 11.2 14.5 84 1.5 N 39 44 21 24 1017.6 1017.6 0.0
17/05:30am 17.1 11.2 14.7 86 1.4 N 39 44 21 24 1017.7 1017.7 0.0
17/05:00am 16.9 11.0 14.7 87 1.3 N 39 44 21 24 1017.8 1017.8 0.0
17/04:30am 16.9 10.6 14.7 87 1.3 N 41 46 22 25 1018.0 1018.0 0.0
17/04:00am 17.0 10.7 14.6 86 1.4 N 41 46 22 25 1017.9 1017.9 0.0
17/03:30am 17.2 10.6 14.8 86 1.4 N 43 50 23 27 1017.8 1017.8 0.0
17/03:00am 17.3 10.1 14.8 85 1.4 N 46 54 25 29 1017.7 1017.7 0.0
17/02:30am 17.6 10.3 14.5 82 1.8 N 46 54 25 29 1017.7 1017.7 0.0
17/02:00am 17.7 11.1 14.8 83 1.7 N 43 52 23 28 1018.1 1018.1 0.0
17/01:30am 17.3 10.2 14.9 86 1.4 N 46 54 25 29 1018.2 1018.2 0.0
17/01:00am 17.4 9.5 15.0 86 1.4 N 50 56 27 30 1018.5 1018.5 0.0
17/12:30am 17.2 9.9 15.4 89 1.1 N 48 59 26 32 1018.5 1018.5 0.0
17/12:00am 16.6 10.5 15.3 92 0.8 N 41 46 22 25 1018.9 1018.9 0.0
 
Date/Time
EST
Temp
°C
App
Temp
°C
Dew
Point
°C
Rel
Hum
%
Delta-T
°C
Wind Press
QNH
hPa
Press
MSL
hPa
Rain since
9am
mm
Dir  Spd
km/h
Gust
km/h
Spd
kts
Gust
kts
16/11:30pm 16.6 10.9 15.1 91 0.9 N 39 46 21 25 1019.4 1019.4 0.0
16/11:00pm 16.5 11.2 15.4 93 0.6 N 37 43 20 23 1019.6 1019.6 0.0
16/10:30pm 16.4 12.8 15.3 93 0.6 N 28 37 15 20 1020.0 1020.0 0.0
16/10:00pm 16.7 11.5 15.6 93 0.6 N 37 44 20 24 1020.4 1020.4 0.0
16/09:30pm 16.7 12.8 15.4 92 0.8 N 30 35 16 19 1020.3 1020.3 0.0
16/09:00pm 17.0 12.7 15.5 91 0.9 N 32 37 17 20 1020.4 1020.4 0.0
16/08:30pm 17.2 12.7 15.5 90 1.0 N 33 41 18 22 1020.4 1020.4 0.0
16/08:00pm 17.2 12.0 15.5 90 1.0 N 37 46 20 25 1020.2 1020.2 0.0
16/07:30pm 17.2 11.9 15.4 89 1.1 N 37 43 20 23 1020.1 1020.1 0.0
16/07:00pm 17.3 12.0 15.3 88 1.2 N 37 46 20 25 1020.1 1020.1 0.0
16/06:30pm 17.5 12.7 15.5 88 1.2 N 35 43 19 23 1019.8 1019.8 0.0
16/06:00pm 17.6 12.7 15.4 87 1.3 N 35 39 19 21 1019.7 1019.7 0.0
16/05:30pm 17.9 12.6 15.2 84 1.6 N 37 43 20 23 1019.4 1019.4 0.0

Latest Capital City Observations: Canberra | Sydney | Melbourne | Brisbane | Adelaide | Perth | Hobart | Darwin

Other formats

Comma delimited format used in spreadsheet applications
http://www.bom.gov.au/fwo/IDT60901/IDT60901.95988.axf

JavaScript Object Notation format (JSON) in row-major order
http://www.bom.gov.au/fwo/IDT60901/IDT60901.95988.json

Data quality

Most of these data are generated automatically and are frequently updated. Quality checks on data are not normally performed. It is possible for incorrect values to appear. Refer to information at About Latest Weather Observations and please check the disclaimer before using these data.